sensor_id;sensor_type;location;lat;lon;timestamp;pressure;altitude;pressure_sealevel;temperature;humidity
64544;BME280;50936;51.660;5.616;2023-04-27T00:01:41;101707.38;;;3.94;100.00
64544;BME280;50936;51.660;5.616;2023-04-27T00:04:08;101710.13;;;3.92;100.00
64544;BME280;50936;51.660;5.616;2023-04-27T00:06:35;101717.31;;;3.90;100.00
64544;BME280;50936;51.660;5.616;2023-04-27T00:09:02;101718.25;;;3.88;100.00
64544;BME280;50936;51.660;5.616;2023-04-27T00:11:30;101724.53;;;3.87;100.00
64544;BME280;50936;51.660;5.616;2023-04-27T00:13:57;101722.81;;;3.84;100.00
64544;BME280;50936;51.660;5.616;2023-04-27T00:16:24;101713.06;;;3.83;100.00
64544;BME280;50936;51.660;5.616;2023-04-27T00:18:51;101713.09;;;3.81;100.00
64544;BME280;50936;51.660;5.616;2023-04-27T00:21:18;101714.81;;;3.82;100.00
64544;BME280;50936;51.660;5.616;2023-04-27T00:23:45;101720.28;;;3.79;100.00
64544;BME280;50936;51.660;5.616;2023-04-27T00:26:12;101709.66;;;3.76;100.00
64544;BME280;50936;51.660;5.616;2023-04-27T00:28:42;101712.38;;;3.75;100.00
64544;BME280;50936;51.660;5.616;2023-04-27T00:31:08;101708.00;;;3.72;100.00
64544;BME280;50936;51.660;5.616;2023-04-27T00:33:35;101709.84;;;3.70;100.00
64544;BME280;50936;51.660;5.616;2023-04-27T00:36:03;101711.66;;;3.68;100.00
64544;BME280;50936;51.660;5.616;2023-04-27T00:38:30;101708.16;;;3.66;100.00
64544;BME280;50936;51.660;5.616;2023-04-27T00:41:05;101707.34;;;3.62;100.00
64544;BME280;50936;51.660;5.616;2023-04-27T00:43:40;101714.56;;;3.59;100.00
64544;BME280;50936;51.660;5.616;2023-04-27T00:46:10;101720.00;;;3.56;100.00
64544;BME280;50936;51.660;5.616;2023-04-27T00:48:40;101716.53;;;3.52;100.00
64544;BME280;50936;51.660;5.616;2023-04-27T00:51:07;101719.31;;;3.47;100.00
64544;BME280;50936;51.660;5.616;2023-04-27T00:53:35;101714.06;;;3.44;100.00
64544;BME280;50936;51.660;5.616;2023-04-27T00:56:04;101720.34;;;3.42;100.00
64544;BME280;50936;51.660;5.616;2023-04-27T00:58:32;101714.22;;;3.38;100.00
64544;BME280;50936;51.660;5.616;2023-04-27T01:00:59;101709.84;;;3.36;100.00
64544;BME280;50936;51.660;5.616;2023-04-27T01:03:45;101714.38;;;3.32;100.00
64544;BME280;50936;51.660;5.616;2023-04-27T01:06:13;101710.03;;;3.28;100.00
64544;BME280;50936;51.660;5.616;2023-04-27T01:08:42;101714.53;;;3.26;100.00
64544;BME280;50936;51.660;5.616;2023-04-27T01:11:09;101713.78;;;3.21;100.00
64544;BME280;50936;51.660;5.616;2023-04-27T01:13:37;101708.50;;;3.18;100.00
64544;BME280;50936;51.660;5.616;2023-04-27T01:16:04;101703.22;;;3.15;100.00
64544;BME280;50936;51.660;5.616;2023-04-27T01:18:31;101713.06;;;3.13;100.00
64544;BME280;50936;51.660;5.616;2023-04-27T01:20:59;101707.84;;;3.10;100.00
64544;BME280;50936;51.660;5.616;2023-04-27T01:23:26;101706.97;;;3.07;100.00
64544;BME280;50936;51.660;5.616;2023-04-27T01:25:53;101707.09;;;3.03;100.00
64544;BME280;50936;51.660;5.616;2023-04-27T01:28:20;101705.34;;;3.00;100.00
64544;BME280;50936;51.660;5.616;2023-04-27T01:30:47;101708.13;;;2.97;100.00
64544;BME280;50936;51.660;5.616;2023-04-27T01:33:14;101710.84;;;2.94;100.00
64544;BME280;50936;51.660;5.616;2023-04-27T01:35:40;101707.34;;;2.92;100.00
64544;BME280;50936;51.660;5.616;2023-04-27T01:38:08;101717.19;;;2.90;100.00
64544;BME280;50936;51.660;5.616;2023-04-27T01:40:36;101713.69;;;2.88;100.00
64544;BME280;50936;51.660;5.616;2023-04-27T01:43:03;101711.91;;;2.87;100.00
64544;BME280;50936;51.660;5.616;2023-04-27T01:45:30;101705.78;;;2.83;100.00
64544;BME280;50936;51.660;5.616;2023-04-27T01:47:58;101706.72;;;2.81;100.00
64544;BME280;50936;51.660;5.616;2023-04-27T01:50:25;101706.78;;;2.78;100.00
64544;BME280;50936;51.660;5.616;2023-04-27T01:52:52;101705.06;;;2.77;100.00
64544;BME280;50936;51.660;5.616;2023-04-27T01:55:20;101712.19;;;2.75;100.00
64544;BME280;50936;51.660;5.616;2023-04-27T01:57:47;101696.28;;;2.72;100.00
64544;BME280;50936;51.660;5.616;2023-04-27T02:00:14;101704.31;;;2.70;100.00
64544;BME280;50936;51.660;5.616;2023-04-27T02:02:47;101701.66;;;2.68;100.00
64544;BME280;50936;51.660;5.616;2023-04-27T02:05:16;101704.38;;;2.67;100.00
64544;BME280;50936;51.660;5.616;2023-04-27T02:07:45;101697.34;;;2.63;100.00
64544;BME280;50936;51.660;5.616;2023-04-27T02:10:11;101691.16;;;2.62;100.00
64544;BME280;50936;51.660;5.616;2023-04-27T02:12:38;101689.38;;;2.61;100.00
64544;BME280;50936;51.660;5.616;2023-04-27T02:15:07;101695.69;;;2.59;100.00
64544;BME280;50936;51.660;5.616;2023-04-27T02:17:34;101685.00;;;2.59;100.00
64544;BME280;50936;51.660;5.616;2023-04-27T02:20:01;101692.19;;;2.57;100.00
64544;BME280;50936;51.660;5.616;2023-04-27T02:22:28;101688.59;;;2.56;100.00
64544;BME280;50936;51.660;5.616;2023-04-27T02:24:55;101690.44;;;2.54;100.00
64544;BME280;50936;51.660;5.616;2023-04-27T02:27:22;101678.94;;;2.52;100.00
64544;BME280;50936;51.660;5.616;2023-04-27T02:29:49;101687.84;;;2.51;100.00
64544;BME280;50936;51.660;5.616;2023-04-27T02:32:17;101685.13;;;2.53;100.00
64544;BME280;50936;51.660;5.616;2023-04-27T02:34:43;101687.88;;;2.49;100.00
64544;BME280;50936;51.660;5.616;2023-04-27T02:37:11;101683.47;;;2.47;100.00
64544;BME280;50936;51.660;5.616;2023-04-27T02:39:37;101673.75;;;2.46;100.00
64544;BME280;50936;51.660;5.616;2023-04-27T02:42:05;101671.97;;;2.45;100.00
64544;BME280;50936;51.660;5.616;2023-04-27T02:44:32;101668.47;;;2.43;100.00
64544;BME280;50936;51.660;5.616;2023-04-27T02:46:58;101672.97;;;2.41;100.00
64544;BME280;50936;51.660;5.616;2023-04-27T02:49:26;101662.34;;;2.38;100.00
64544;BME280;50936;51.660;5.616;2023-04-27T02:51:53;101668.63;;;2.37;100.00
64544;BME280;50936;51.660;5.616;2023-04-27T02:54:19;101673.13;;;2.33;100.00
64544;BME280;50936;51.660;5.616;2023-04-27T02:56:46;101681.16;;;2.31;100.00
64544;BME280;50936;51.660;5.616;2023-04-27T02:59:13;101681.22;;;2.28;100.00
64544;BME280;50936;51.660;5.616;2023-04-27T03:01:41;101681.31;;;2.25;100.00
64544;BME280;50936;51.660;5.616;2023-04-27T03:04:08;101679.53;;;2.24;100.00
64544;BME280;50936;51.660;5.616;2023-04-27T03:06:36;101668.03;;;2.22;100.00
64544;BME280;50936;51.660;5.616;2023-04-27T03:09:03;101668.97;;;2.20;100.00
64544;BME280;50936;51.660;5.616;2023-04-27T03:11:30;101671.69;;;2.18;100.00
64544;BME280;50936;51.660;5.616;2023-04-27T03:13:57;101669.06;;;2.17;100.00
64544;BME280;50936;51.660;5.616;2023-04-27T03:16:24;101672.63;;;2.14;100.00
64544;BME280;50936;51.660;5.616;2023-04-27T03:18:51;101672.63;;;2.14;100.00
64544;BME280;50936;51.660;5.616;2023-04-27T03:21:18;101683.34;;;2.13;100.00
64544;BME280;50936;51.660;5.616;2023-04-27T03:23:49;101682.47;;;2.10;100.00
64544;BME280;50936;51.660;5.616;2023-04-27T03:26:15;101685.22;;;2.09;100.00
64544;BME280;50936;51.660;5.616;2023-04-27T03:28:42;101677.25;;;2.07;100.00
64544;BME280;50936;51.660;5.616;2023-04-27T03:31:11;101682.59;;;2.06;100.00
64544;BME280;50936;51.660;5.616;2023-04-27T03:33:40;101683.50;;;2.05;100.00
64544;BME280;50936;51.660;5.616;2023-04-27T03:36:07;101679.97;;;2.03;100.00
64544;BME280;50936;51.660;5.616;2023-04-27T03:38:40;101687.13;;;2.01;100.00
64544;BME280;50936;51.660;5.616;2023-04-27T03:41:07;101693.41;;;2.00;100.00
64544;BME280;50936;51.660;5.616;2023-04-27T03:43:34;101693.41;;;1.98;100.00
64544;BME280;50936;51.660;5.616;2023-04-27T03:46:01;101688.13;;;1.95;100.00
64544;BME280;50936;51.660;5.616;2023-04-27T03:48:29;101699.66;;;1.96;100.00
64544;BME280;50936;51.660;5.616;2023-04-27T03:50:56;101696.16;;;1.93;100.00
64544;BME280;50936;51.660;5.616;2023-04-27T03:53:23;101693.53;;;1.92;100.00
64544;BME280;50936;51.660;5.616;2023-04-27T03:55:50;101697.09;;;1.91;100.00
64544;BME280;50936;51.660;5.616;2023-04-27T03:58:17;101702.47;;;1.89;100.00
64544;BME280;50936;51.660;5.616;2023-04-27T04:01:07;101699.84;;;1.86;100.00
64544;BME280;50936;51.660;5.616;2023-04-27T04:03:36;101703.44;;;1.85;100.00
64544;BME280;50936;51.660;5.616;2023-04-27T04:06:06;101696.41;;;1.81;100.00
64544;BME280;50936;51.660;5.616;2023-04-27T04:08:33;101697.31;;;1.80;100.00
64544;BME280;50936;51.660;5.616;2023-04-27T04:11:00;101703.56;;;1.78;100.00
64544;BME280;50936;51.660;5.616;2023-04-27T04:13:28;101700.03;;;1.77;100.00
64544;BME280;50936;51.660;5.616;2023-04-27T04:16:05;101706.28;;;1.76;100.00
64544;BME280;50936;51.660;5.616;2023-04-27T04:18:35;101712.50;;;1.75;100.00
64544;BME280;50936;51.660;5.616;2023-04-27T04:21:04;101703.63;;;1.76;100.00
64544;BME280;50936;51.660;5.616;2023-04-27T04:23:31;101703.63;;;1.76;100.00
64544;BME280;50936;51.660;5.616;2023-04-27T04:25:58;101710.69;;;1.77;100.00
64544;BME280;50936;51.660;5.616;2023-04-27T04:28:29;101707.13;;;1.78;100.00
64544;BME280;50936;51.660;5.616;2023-04-27T04:30:56;101712.38;;;1.81;100.00
64544;BME280;50936;51.660;5.616;2023-04-27T04:33:24;101712.28;;;1.87;100.00
64544;BME280;50936;51.660;5.616;2023-04-27T04:35:52;101720.94;;;1.99;100.00
64544;BME280;50936;51.660;5.616;2023-04-27T04:38:19;101726.50;;;2.31;100.00
64544;BME280;50936;51.660;5.616;2023-04-27T04:40:46;101724.84;;;2.66;100.00
64544;BME280;50936;51.660;5.616;2023-04-27T04:43:13;101733.06;;;2.95;100.00
64544;BME280;50936;51.660;5.616;2023-04-27T04:45:40;101727.19;;;3.18;100.00
64544;BME280;50936;51.660;5.616;2023-04-27T04:48:13;101725.75;;;3.39;100.00
64544;BME280;50936;51.660;5.616;2023-04-27T04:50:43;101730.75;;;3.53;100.00
64544;BME280;50936;51.660;5.616;2023-04-27T04:53:11;101725.56;;;3.48;100.00
64544;BME280;50936;51.660;5.616;2023-04-27T04:55:38;101735.09;;;3.57;100.00
64544;BME280;50936;51.660;5.616;2023-04-27T04:58:07;101735.78;;;3.65;100.00
64544;BME280;50936;51.660;5.616;2023-04-27T05:00:34;101730.47;;;3.65;100.00
64544;BME280;50936;51.660;5.616;2023-04-27T05:03:01;101738.53;;;3.62;100.00
64544;BME280;50936;51.660;5.616;2023-04-27T05:05:28;101735.28;;;3.51;100.00
64544;BME280;50936;51.660;5.616;2023-04-27T05:07:55;101735.44;;;3.44;100.00
64544;BME280;50936;51.660;5.616;2023-04-27T05:10:22;101736.34;;;3.43;100.00
64544;BME280;50936;51.660;5.616;2023-04-27T05:12:49;101742.16;;;3.61;100.00
64544;BME280;50936;51.660;5.616;2023-04-27T05:15:16;101747.84;;;3.81;100.00
64544;BME280;50936;51.660;5.616;2023-04-27T05:17:43;101749.81;;;4.06;100.00
64544;BME280;50936;51.660;5.616;2023-04-27T05:20:10;101740.94;;;4.05;100.00
64544;BME280;50936;51.660;5.616;2023-04-27T05:22:37;101745.66;;;3.96;100.00
64544;BME280;50936;51.660;5.616;2023-04-27T05:25:05;101744.16;;;3.85;100.00
64544;BME280;50936;51.660;5.616;2023-04-27T05:27:32;101741.72;;;3.76;100.00
64544;BME280;50936;51.660;5.616;2023-04-27T05:29:58;101738.38;;;3.68;100.00
64544;BME280;50936;51.660;5.616;2023-04-27T05:32:26;101736.44;;;3.73;100.00
64544;BME280;50936;51.660;5.616;2023-04-27T05:34:53;101742.50;;;3.81;100.00
64544;BME280;50936;51.660;5.616;2023-04-27T05:37:19;101745.06;;;3.84;100.00
64544;BME280;50936;51.660;5.616;2023-04-27T05:39:46;101744.19;;;3.84;100.00
64544;BME280;50936;51.660;5.616;2023-04-27T05:42:13;101751.84;;;3.98;100.00
64544;BME280;50936;51.660;5.616;2023-04-27T05:44:40;101744.59;;;4.03;100.00
64544;BME280;50936;51.660;5.616;2023-04-27T05:47:07;101739.91;;;4.10;100.00
64544;BME280;50936;51.660;5.616;2023-04-27T05:49:34;101746.63;;;4.24;100.00
64544;BME280;50936;51.660;5.616;2023-04-27T05:52:01;101749.84;;;4.36;100.00
64544;BME280;50936;51.660;5.616;2023-04-27T05:54:28;101739.75;;;4.47;100.00
64544;BME280;50936;51.660;5.616;2023-04-27T05:56:55;101743.06;;;4.55;100.00
64544;BME280;50936;51.660;5.616;2023-04-27T05:59:22;101741.03;;;4.63;100.00
64544;BME280;50936;51.660;5.616;2023-04-27T06:01:49;101742.50;;;4.74;100.00
64544;BME280;50936;51.660;5.616;2023-04-27T06:04:16;101736.81;;;4.85;100.00
64544;BME280;50936;51.660;5.616;2023-04-27T06:06:43;101741.91;;;4.92;100.00
64544;BME280;50936;51.660;5.616;2023-04-27T06:09:10;101738.91;;;5.03;100.00
64544;BME280;50936;51.660;5.616;2023-04-27T06:11:37;101743.81;;;5.17;100.00
64544;BME280;50936;51.660;5.616;2023-04-27T06:14:04;101743.19;;;5.37;100.00
64544;BME280;50936;51.660;5.616;2023-04-27T06:16:31;101745.38;;;5.51;100.00
64544;BME280;50936;51.660;5.616;2023-04-27T06:18:58;101755.78;;;5.60;100.00
64544;BME280;50936;51.660;5.616;2023-04-27T06:21:25;101750.91;;;5.71;100.00
64544;BME280;50936;51.660;5.616;2023-04-27T06:23:51;101746.09;;;5.83;100.00
64544;BME280;50936;51.660;5.616;2023-04-27T06:26:18;101747.50;;;5.93;100.00
64544;BME280;50936;51.660;5.616;2023-04-27T06:28:45;101740.53;;;6.14;100.00
64544;BME280;50936;51.660;5.616;2023-04-27T06:31:12;101734.06;;;6.67;100.00
64544;BME280;50936;51.660;5.616;2023-04-27T06:33:39;101743.47;;;7.01;96.51
64544;BME280;50936;51.660;5.616;2023-04-27T06:36:07;101744.41;;;7.00;93.91
64544;BME280;50936;51.660;5.616;2023-04-27T06:38:34;101746.19;;;6.99;93.81
64544;BME280;50936;51.660;5.616;2023-04-27T06:41:01;101743.34;;;7.26;93.26
64544;BME280;50936;51.660;5.616;2023-04-27T06:43:29;101746.31;;;7.62;89.47
64544;BME280;50936;51.660;5.616;2023-04-27T06:45:56;101749.69;;;7.67;87.88
64544;BME280;50936;51.660;5.616;2023-04-27T06:48:23;101749.28;;;7.77;90.27
64544;BME280;50936;51.660;5.616;2023-04-27T06:50:50;101747.00;;;7.88;89.50
64544;BME280;50936;51.660;5.616;2023-04-27T06:53:17;101750.41;;;8.12;88.04
64544;BME280;50936;51.660;5.616;2023-04-27T06:55:44;101743.91;;;8.37;81.15
64544;BME280;50936;51.660;5.616;2023-04-27T06:58:14;101746.13;;;8.47;79.34
64544;BME280;50936;51.660;5.616;2023-04-27T07:00:40;101739.16;;;8.43;79.49
64544;BME280;50936;51.660;5.616;2023-04-27T07:03:07;101740.91;;;8.44;79.47
64544;BME280;50936;51.660;5.616;2023-04-27T07:05:35;101740.19;;;8.60;76.89
64544;BME280;50936;51.660;5.616;2023-04-27T07:08:01;101746.16;;;8.66;77.31
64544;BME280;50936;51.660;5.616;2023-04-27T07:10:33;101750.78;;;9.01;75.40
64544;BME280;50936;51.660;5.616;2023-04-27T07:13:00;101741.81;;;9.19;73.58
64544;BME280;50936;51.660;5.616;2023-04-27T07:15:29;101739.28;;;9.16;73.41
64544;BME280;50936;51.660;5.616;2023-04-27T07:17:57;101747.09;;;9.40;74.76
64544;BME280;50936;51.660;5.616;2023-04-27T07:20:24;101745.94;;;9.80;73.90
64544;BME280;50936;51.660;5.616;2023-04-27T07:22:52;101751.22;;;10.17;74.11
64544;BME280;50936;51.660;5.616;2023-04-27T07:25:19;101752.69;;;10.73;73.88
64544;BME280;50936;51.660;5.616;2023-04-27T07:27:46;101755.81;;;11.29;70.61
64544;BME280;50936;51.660;5.616;2023-04-27T07:30:13;101756.31;;;11.82;67.70
64544;BME280;50936;51.660;5.616;2023-04-27T07:32:41;101761.88;;;12.25;66.64
64544;BME280;50936;51.660;5.616;2023-04-27T07:35:08;101752.47;;;12.45;63.97
64544;BME280;50936;51.660;5.616;2023-04-27T07:37:35;101749.94;;;12.85;62.75
64544;BME280;50936;51.660;5.616;2023-04-27T07:40:04;101749.34;;;13.36;63.35
64544;BME280;50936;51.660;5.616;2023-04-27T07:42:39;101748.94;;;13.82;58.68
64544;BME280;50936;51.660;5.616;2023-04-27T07:45:08;101753.59;;;13.67;53.98
64544;BME280;50936;51.660;5.616;2023-04-27T07:47:35;101755.56;;;13.24;55.75
64544;BME280;50936;51.660;5.616;2023-04-27T07:50:05;101744.13;;;13.33;57.16
64544;BME280;50936;51.660;5.616;2023-04-27T07:52:32;101741.09;;;13.65;55.92
64544;BME280;50936;51.660;5.616;2023-04-27T07:54:59;101747.91;;;13.58;53.85
64544;BME280;50936;51.660;5.616;2023-04-27T07:57:26;101740.84;;;13.28;56.33
64544;BME280;50936;51.660;5.616;2023-04-27T07:59:53;101735.91;;;12.93;57.07
64544;BME280;50936;51.660;5.616;2023-04-27T08:02:20;101746.91;;;13.04;57.10
64544;BME280;50936;51.660;5.616;2023-04-27T08:04:48;101743.66;;;13.26;56.16
64544;BME280;50936;51.660;5.616;2023-04-27T08:07:16;101744.50;;;13.27;53.41
64544;BME280;50936;51.660;5.616;2023-04-27T08:09:44;101737.44;;;12.97;54.78
64544;BME280;50936;51.660;5.616;2023-04-27T08:12:11;101746.75;;;12.93;55.11
64544;BME280;50936;51.660;5.616;2023-04-27T08:14:38;101741.09;;;12.96;54.79
64544;BME280;50936;51.660;5.616;2023-04-27T08:17:04;101754.91;;;12.79;55.17
64544;BME280;50936;51.660;5.616;2023-04-27T08:19:32;101751.44;;;12.48;54.42
64544;BME280;50936;51.660;5.616;2023-04-27T08:21:59;101753.94;;;12.22;55.08
64544;BME280;50936;51.660;5.616;2023-04-27T08:24:26;101741.72;;;12.01;56.65
64544;BME280;50936;51.660;5.616;2023-04-27T08:26:53;101758.84;;;11.85;56.97
64544;BME280;50936;51.660;5.616;2023-04-27T08:29:20;101755.56;;;11.80;58.36
64544;BME280;50936;51.660;5.616;2023-04-27T08:31:57;101759.22;;;11.79;58.50
64544;BME280;50936;51.660;5.616;2023-04-27T08:34:27;101747.69;;;11.91;56.72
64544;BME280;50936;51.660;5.616;2023-04-27T08:36:54;101743.25;;;12.05;55.48
64544;BME280;50936;51.660;5.616;2023-04-27T08:39:24;101746.16;;;12.16;57.86
64544;BME280;50936;51.660;5.616;2023-04-27T08:41:51;101741.44;;;12.48;55.63
64544;BME280;50936;51.660;5.616;2023-04-27T08:44:18;101730.88;;;12.58;53.77
64544;BME280;50936;51.660;5.616;2023-04-27T08:46:46;101728.19;;;12.58;53.85
64544;BME280;50936;51.660;5.616;2023-04-27T08:49:13;101722.84;;;12.71;52.88
64544;BME280;50936;51.660;5.616;2023-04-27T08:51:42;101718.91;;;12.77;53.00
64544;BME280;50936;51.660;5.616;2023-04-27T08:54:10;101728.91;;;12.89;53.91
64544;BME280;50936;51.660;5.616;2023-04-27T08:56:37;101720.94;;;13.00;52.03
64544;BME280;50936;51.660;5.616;2023-04-27T08:59:13;101726.50;;;12.99;51.57
64544;BME280;50936;51.660;5.616;2023-04-27T09:01:48;101721.16;;;12.97;52.19
64544;BME280;50936;51.660;5.616;2023-04-27T09:04:15;101728.25;;;13.27;50.00
64544;BME280;50936;51.660;5.616;2023-04-27T09:06:46;101732.03;;;13.52;51.84
64544;BME280;50936;51.660;5.616;2023-04-27T09:09:23;101731.69;;;13.83;47.70
64544;BME280;50936;51.660;5.616;2023-04-27T09:11:51;101730.16;;;13.79;48.34
64544;BME280;50936;51.660;5.616;2023-04-27T09:14:20;101728.38;;;13.65;48.94
64544;BME280;50936;51.660;5.616;2023-04-27T09:16:56;101734.03;;;13.62;49.38
64544;BME280;50936;51.660;5.616;2023-04-27T09:19:26;101732.72;;;13.68;49.49
64544;BME280;50936;51.660;5.616;2023-04-27T09:22:09;101725.38;;;13.70;48.87
64544;BME280;50936;51.660;5.616;2023-04-27T09:24:37;101729.72;;;13.73;48.91
64544;BME280;50936;51.660;5.616;2023-04-27T09:27:05;101728.84;;;13.72;47.68
64544;BME280;50936;51.660;5.616;2023-04-27T09:29:35;101721.47;;;13.74;49.37
64544;BME280;50936;51.660;5.616;2023-04-27T09:32:16;101727.97;;;13.84;47.62
64544;BME280;50936;51.660;5.616;2023-04-27T09:34:44;101725.19;;;13.99;45.77
64544;BME280;50936;51.660;5.616;2023-04-27T09:37:12;101728.22;;;13.94;45.45
64544;BME280;50936;51.660;5.616;2023-04-27T09:39:41;101721.06;;;14.06;44.25
64544;BME280;50936;51.660;5.616;2023-04-27T09:42:09;101714.09;;;14.02;43.49
64544;BME280;50936;51.660;5.616;2023-04-27T09:44:37;101713.91;;;13.92;45.67
64544;BME280;50936;51.660;5.616;2023-04-27T09:47:05;101718.03;;;13.98;44.93
64544;BME280;50936;51.660;5.616;2023-04-27T09:49:33;101713.00;;;13.92;44.41
64544;BME280;50936;51.660;5.616;2023-04-27T09:52:00;101707.56;;;13.79;44.67
64544;BME280;50936;51.660;5.616;2023-04-27T09:54:30;101701.16;;;13.67;44.41
64544;BME280;50936;51.660;5.616;2023-04-27T09:57:22;101701.69;;;13.72;46.10
64544;BME280;50936;51.660;5.616;2023-04-27T10:00:09;101690.41;;;13.78;45.57
64544;BME280;50936;51.660;5.616;2023-04-27T10:03:11;101696.69;;;13.79;45.35
64544;BME280;50936;51.660;5.616;2023-04-27T10:08:44;101702.03;;;14.06;47.55
64544;BME280;50936;51.660;5.616;2023-04-27T10:11:15;101703.22;;;14.40;45.90
64544;BME280;50936;51.660;5.616;2023-04-27T10:13:53;101702.78;;;14.47;42.95
64544;BME280;50936;51.660;5.616;2023-04-27T10:16:20;101703.53;;;14.49;42.76
64544;BME280;50936;51.660;5.616;2023-04-27T10:18:53;101699.31;;;14.57;44.32
64544;BME280;50936;51.660;5.616;2023-04-27T10:21:21;101696.16;;;15.00;43.30
64544;BME280;50936;51.660;5.616;2023-04-27T10:23:50;101692.59;;;15.24;41.17
64544;BME280;50936;51.660;5.616;2023-04-27T10:26:24;101696.69;;;15.30;39.24
64544;BME280;50936;51.660;5.616;2023-04-27T10:29:06;101696.63;;;15.18;39.69
64544;BME280;50936;51.660;5.616;2023-04-27T10:31:34;101697.72;;;15.16;38.90
64544;BME280;50936;51.660;5.616;2023-04-27T10:34:10;101688.00;;;15.25;39.12
64544;BME280;50936;51.660;5.616;2023-04-27T10:36:41;101694.06;;;15.28;39.76
64544;BME280;50936;51.660;5.616;2023-04-27T10:39:18;101701.81;;;15.21;38.42
64544;BME280;50936;51.660;5.616;2023-04-27T10:42:01;101701.94;;;15.20;39.48
64544;BME280;50936;51.660;5.616;2023-04-27T10:44:30;101696.06;;;15.26;39.33
64544;BME280;50936;51.660;5.616;2023-04-27T10:47:01;101693.59;;;15.34;38.03
64544;BME280;50936;51.660;5.616;2023-04-27T10:49:38;101686.66;;;15.30;37.63
64544;BME280;50936;51.660;5.616;2023-04-27T10:52:06;101691.38;;;15.04;38.11
64544;BME280;50936;51.660;5.616;2023-04-27T10:54:34;101695.56;;;14.84;38.85
64544;BME280;50936;51.660;5.616;2023-04-27T10:57:09;101694.28;;;14.77;39.12
64544;BME280;50936;51.660;5.616;2023-04-27T10:59:48;101685.13;;;14.78;39.80
64544;BME280;50936;51.660;5.616;2023-04-27T11:02:24;101677.13;;;15.00;39.45
64544;BME280;50936;51.660;5.616;2023-04-27T11:04:54;101681.69;;;15.24;38.99
64544;BME280;50936;51.660;5.616;2023-04-27T11:07:23;101683.75;;;15.45;35.90
64544;BME280;50936;51.660;5.616;2023-04-27T11:09:52;101679.31;;;15.55;37.05
64544;BME280;50936;51.660;5.616;2023-04-27T11:12:20;101669.69;;;15.62;36.91
64544;BME280;50936;51.660;5.616;2023-04-27T11:14:47;101666.84;;;15.64;38.34
64544;BME280;50936;51.660;5.616;2023-04-27T11:17:14;101666.34;;;15.83;37.35
64544;BME280;50936;51.660;5.616;2023-04-27T11:19:45;101660.38;;;15.89;36.24
64544;BME280;50936;51.660;5.616;2023-04-27T11:22:15;101652.94;;;15.80;37.70
64544;BME280;50936;51.660;5.616;2023-04-27T11:24:49;101649.28;;;16.03;34.85
64544;BME280;50936;51.660;5.616;2023-04-27T11:27:18;101656.09;;;16.09;35.73
64544;BME280;50936;51.660;5.616;2023-04-27T11:29:47;101656.47;;;16.15;36.38
64544;BME280;50936;51.660;5.616;2023-04-27T11:32:18;101643.81;;;16.26;37.57
64544;BME280;50936;51.660;5.616;2023-04-27T11:34:50;101631.38;;;16.55;35.65
64544;BME280;50936;51.660;5.616;2023-04-27T11:37:23;101634.13;;;16.67;36.43
64544;BME280;50936;51.660;5.616;2023-04-27T11:39:52;101638.31;;;16.71;35.20
64544;BME280;50936;51.660;5.616;2023-04-27T11:42:24;101632.63;;;16.63;36.06
64544;BME280;50936;51.660;5.616;2023-04-27T11:45:02;101635.84;;;16.68;35.72
64544;BME280;50936;51.660;5.616;2023-04-27T11:47:34;101632.34;;;16.88;36.14
64544;BME280;50936;51.660;5.616;2023-04-27T11:50:04;101635.47;;;17.16;33.23
64544;BME280;50936;51.660;5.616;2023-04-27T11:52:34;101632.84;;;17.26;31.86
64544;BME280;50936;51.660;5.616;2023-04-27T11:55:03;101635.75;;;17.13;33.01
64544;BME280;50936;51.660;5.616;2023-04-27T11:57:32;101626.72;;;17.01;34.47
64544;BME280;50936;51.660;5.616;2023-04-27T12:00:03;101627.00;;;16.98;33.70
64544;BME280;50936;51.660;5.616;2023-04-27T12:02:41;101636.00;;;17.10;33.92
64544;BME280;50936;51.660;5.616;2023-04-27T12:05:09;101636.44;;;17.26;33.32
64544;BME280;50936;51.660;5.616;2023-04-27T12:07:39;101626.72;;;17.55;32.60
64544;BME280;50936;51.660;5.616;2023-04-27T12:10:07;101630.25;;;17.87;34.50
64544;BME280;50936;51.660;5.616;2023-04-27T12:12:34;101620.28;;;18.38;29.67
64544;BME280;50936;51.660;5.616;2023-04-27T12:15:01;101628.25;;;18.51;29.96
64544;BME280;50936;51.660;5.616;2023-04-27T12:17:28;101625.94;;;18.46;31.74
64544;BME280;50936;51.660;5.616;2023-04-27T12:19:55;101614.16;;;18.56;30.90
64544;BME280;50936;51.660;5.616;2023-04-27T12:22:22;101620.63;;;18.55;32.06
64544;BME280;50936;51.660;5.616;2023-04-27T12:24:50;101614.31;;;18.74;30.21
64544;BME280;50936;51.660;5.616;2023-04-27T12:27:17;101611.91;;;18.80;28.88
64544;BME280;50936;51.660;5.616;2023-04-27T12:29:44;101607.53;;;18.68;29.47
64544;BME280;50936;51.660;5.616;2023-04-27T12:32:10;101609.28;;;18.79;28.83
64544;BME280;50936;51.660;5.616;2023-04-27T12:34:37;101607.28;;;18.71;30.58
64544;BME280;50936;51.660;5.616;2023-04-27T12:37:05;101607.31;;;18.81;30.78
64544;BME280;50936;51.660;5.616;2023-04-27T12:39:34;101606.75;;;18.87;30.13
64544;BME280;50936;51.660;5.616;2023-04-27T12:42:02;101603.44;;;18.93;29.27
64544;BME280;50936;51.660;5.616;2023-04-27T12:44:29;101611.09;;;19.09;29.58
64544;BME280;50936;51.660;5.616;2023-04-27T12:46:56;101601.28;;;18.97;28.53
64544;BME280;50936;51.660;5.616;2023-04-27T12:49:22;101607.81;;;18.55;29.27
64544;BME280;50936;51.660;5.616;2023-04-27T12:51:51;101605.19;;;18.44;29.22
64544;BME280;50936;51.660;5.616;2023-04-27T12:54:18;101596.19;;;18.63;29.67
64544;BME280;50936;51.660;5.616;2023-04-27T12:56:45;101600.72;;;18.83;29.30
64544;BME280;50936;51.660;5.616;2023-04-27T12:59:12;101593.72;;;18.60;29.07
64544;BME280;50936;51.660;5.616;2023-04-27T13:01:39;101592.94;;;18.38;29.92